Página principal
METAR-TAF:

METAR-TAF

Aeroportos :

Madrid, Espanha

Aeroporto de Madrid-Barajas

latitude: 40-27N, longitude: 003-33W, altura: 609 m

Observação actual do tempo

O boletim foi feito há 25 minutos, às 23:00 UTC
Vento 4 kt de nor-nordeste
Temperatura 0°C
Humidade 86%
Pressão 1024 hPa
Visibilidade 10 km ou mais
sem nuvens abaixo de 1500 metros e sem cumulonimbus

METAR: LEMD 122300Z 02004KT CAVOK M00/M02 Q1024 NOSIG

Hora: 00:25 (23:25 UTC)

Previsão

O boletim foi feito há 6 horas e 25 minutos, às 17:00 UTC
Previsão válida de 12 às 18 UTC a 13 às 24 UTC
Vento 5 kt com direcção variável
Visibilidade 10 km ou mais
sem nuvens abaixo de 1500 metros e sem cumulonimbus
Probabilidade 30% :
Temporariamente
de 13 às 18 UTC a 13 às 24 UTC
Vento 10 kt de sudoeste

TAF: LEMD 121700Z 1218/1324 VRB05KT CAVOK TX10/1314Z TNM01/1307Z PROB30 TEMPO 1318/1324 23010KT

Observações e previsões do tempo de mais de 4000 aeroportos (mensagens METAR e TAF).

As estações disponíveis são os pontos amarelos e vermelhos sobre o mapa.

Mova o rato sobre o mapa para ver o nome da estação.

Depois clique no ponto para visualizar as observações e previsões meteorológicas.

Para alterar o mapa : clique nos botões verdes com uma cruz preta para aumentar o zoom; no botão verde com uma pitada de zoom; ou nas setas verdes para mapas adjacentes.


METAR-TAF: